Time;durP1;ratioP1;P1;durP2;ratioP2;P2;SDS_P1;SDS_P2;PMS_P1;PMS_P2;Temp;Humidity;BMP_temperature;BMP_pressure;BME280_temperature;BME280_humidity;BME280_pressure;Samples;Min_cycle;Max_cycle;Signal;HPM_P1;HPM_P2
2023/03/29 00:00:37;;;;;;;;;;;21.50;82.10;;;;;;5117222;28;19914;-74
2023/03/29 00:03:03;;;;;;;;;;;21.50;82.00;;;;;;5135914;28;20452;-73
2023/03/29 00:05:32;;;;;;;;;;;21.70;81.40;;;;;;5135999;28;19907;-73
2023/03/29 00:08:02;;;;;;;;;;;21.90;81.10;;;;;;5116257;28;19911;-67
2023/03/29 00:10:29;;;;;;;;;;;22.10;80.60;;;;;;5135917;28;20361;-74
2023/03/29 00:12:54;;;;;;;;;;;22.20;80.00;;;;;;5135932;28;19907;-74
2023/03/29 00:15:20;;;;;;;;;;;22.30;79.80;;;;;;5135834;28;19914;-73
2023/03/29 00:17:45;;;;;;;;;;;22.20;79.70;;;;;;5134027;28;19927;-74
2023/03/29 00:20:12;;;;;;;;;;;22.10;80.00;;;;;;5135237;28;19915;-74
2023/03/29 00:22:38;;;;;;;;;;;22.10;80.30;;;;;;5136077;28;19907;-74
2023/03/29 00:25:06;;;;;;;;;;;22.00;80.30;;;;;;5115646;28;19911;-74
2023/03/29 00:27:31;;;;;;;;;;;21.90;80.90;;;;;;5135190;28;19907;-74
2023/03/29 00:29:57;;;;;;;;;;;21.80;81.00;;;;;;5137735;27;19936;-74
2023/03/29 00:32:22;;;;;;;;;;;21.70;81.20;;;;;;5120493;27;20056;-74
2023/03/29 00:34:49;;;;;;;;;;;21.60;81.40;;;;;;5137990;27;19914;-69
2023/03/29 00:37:18;;;;;;;;;;;21.50;81.40;;;;;;5138357;27;19939;-74
2023/03/29 00:39:44;;;;;;;;;;;21.50;82.20;;;;;;5139021;27;20311;-74
2023/03/29 00:42:14;;;;;;;;;;;21.40;82.00;;;;;;5139066;27;19930;-74
2023/03/29 00:44:51;;;;;;;;;;;21.40;82.20;;;;;;5138251;27;20002;-74
2023/03/29 00:47:20;;;;;;;;;;;21.40;82.20;;;;;;5137507;27;20366;-74
2023/03/29 00:49:46;;;;;;;;;;;21.50;82.10;;;;;;5138574;27;20419;-74
2023/03/29 00:52:12;;;;;;;;;;;21.70;81.70;;;;;;5138531;27;19908;-74
2023/03/29 00:54:39;;;;;;;;;;;21.90;81.40;;;;;;5120035;27;19907;-73
2023/03/29 00:57:06;;;;;;;;;;;22.00;81.20;;;;;;5137482;27;19938;-74
2023/03/29 00:59:34;;;;;;;;;;;22.10;80.90;;;;;;5137505;27;21610;-74
2023/03/29 01:02:04;;;;;;;;;;;22.10;80.80;;;;;;5138136;27;19908;-74
2023/03/29 01:04:41;;;;;;;;;;;22.00;80.60;;;;;;5120003;27;19908;-74
2023/03/29 01:07:12;;;;;;;;;;;22.00;81.00;;;;;;5119052;27;19951;-73
2023/03/29 01:09:40;;;;;;;;;;;21.90;81.00;;;;;;5138587;27;19912;-74
2023/03/29 01:12:15;;;;;;;;;;;21.80;81.30;;;;;;5138039;27;20384;-73
2023/03/29 01:14:47;;;;;;;;;;;21.70;81.40;;;;;;5137897;27;19938;-73
2023/03/29 01:17:13;;;;;;;;;;;21.60;81.60;;;;;;5136929;27;19931;-74
2023/03/29 01:19:52;;;;;;;;;;;21.50;82.00;;;;;;5137674;27;19908;-74
2023/03/29 01:22:28;;;;;;;;;;;21.50;82.30;;;;;;5137721;27;19907;-73
2023/03/29 01:24:53;;;;;;;;;;;21.40;82.30;;;;;;5136636;27;19919;-73
2023/03/29 01:27:21;;;;;;;;;;;21.50;82.30;;;;;;5137158;27;19911;-73
2023/03/29 01:29:59;;;;;;;;;;;21.50;82.30;;;;;;5137574;27;19912;-74
2023/03/29 01:32:25;;;;;;;;;;;21.70;81.80;;;;;;5137724;27;20390;-73
2023/03/29 01:34:55;;;;;;;;;;;21.80;81.40;;;;;;5136378;27;19951;-73
2023/03/29 01:37:27;;;;;;;;;;;22.00;81.10;;;;;;5137561;27;19967;-73
2023/03/29 01:39:53;;;;;;;;;;;22.10;80.80;;;;;;5137534;27;19907;-74
2023/03/29 01:42:23;;;;;;;;;;;22.10;80.50;;;;;;5136902;27;19926;-74
2023/03/29 01:44:55;;;;;;;;;;;22.10;80.60;;;;;;5119047;27;19943;-68
2023/03/29 01:47:29;;;;;;;;;;;22.00;80.80;;;;;;5137426;27;20008;-73
2023/03/29 01:49:55;;;;;;;;;;;21.90;81.10;;;;;;5137443;27;19907;-74
2023/03/29 01:52:24;;;;;;;;;;;21.80;81.30;;;;;;5136447;27;19956;-73
2023/03/29 01:54:55;;;;;;;;;;;21.70;81.70;;;;;;5136975;27;19908;-74
2023/03/29 01:57:23;;;;;;;;;;;21.60;81.90;;;;;;5136019;27;20341;-74
2023/03/29 01:59:50;;;;;;;;;;;21.50;82.10;;;;;;5137304;27;19911;-74
2023/03/29 02:02:17;;;;;;;;;;;21.40;82.30;;;;;;5136928;27;19908;-74
2023/03/29 02:04:48;;;;;;;;;;;21.30;82.40;;;;;;5136249;27;19968;-73
2023/03/29 02:07:16;;;;;;;;;;;21.30;82.50;;;;;;5137104;27;20284;-74
2023/03/29 02:09:42;;;;;;;;;;;21.20;82.80;;;;;;5137093;27;19915;-73
2023/03/29 02:12:08;;;;;;;;;;;21.20;82.90;;;;;;5136698;27;20277;-73
2023/03/29 02:14:34;;;;;;;;;;;21.20;82.70;;;;;;5136389;27;19912;-73
2023/03/29 02:17:18;;;;;;;;;;;21.20;82.80;;;;;;5136550;27;19907;-73
2023/03/29 02:19:48;;;;;;;;;;;21.20;82.80;;;;;;5136555;27;19930;-73
2023/03/29 02:22:15;;;;;;;;;;;21.40;82.40;;;;;;5118775;27;20387;-73
2023/03/29 02:24:41;;;;;;;;;;;21.60;81.80;;;;;;5135290;27;20338;-73
2023/03/29 02:27:07;;;;;;;;;;;21.80;81.40;;;;;;5118286;27;20266;-73
2023/03/29 02:29:32;;;;;;;;;;;22.00;81.00;;;;;;5136948;27;19911;-73
2023/03/29 02:32:24;;;;;;;;;;;22.10;80.60;;;;;;5136585;27;19914;-74
2023/03/29 02:34:55;;;;;;;;;;;22.20;80.30;;;;;;5131852;27;19959;-73
2023/03/29 02:37:23;;;;;;;;;;;22.10;80.20;;;;;;5136482;27;19916;-74
2023/03/29 02:39:49;;;;;;;;;;;22.10;80.30;;;;;;5118005;27;19915;-73
2023/03/29 02:42:16;;;;;;;;;;;22.00;80.50;;;;;;5136486;27;19919;-73
2023/03/29 02:44:43;;;;;;;;;;;21.90;80.50;;;;;;5135093;27;19911;-73
2023/03/29 02:47:15;;;;;;;;;;;21.80;80.90;;;;;;5117803;27;19907;-74
2023/03/29 02:49:41;;;;;;;;;;;21.70;81.20;;;;;;5136144;27;19907;-73
2023/03/29 02:52:12;;;;;;;;;;;21.60;81.30;;;;;;5117693;27;19950;-73
2023/03/29 02:54:42;;;;;;;;;;;21.60;81.40;;;;;;5134926;27;19919;-73
2023/03/29 02:57:09;;;;;;;;;;;21.50;81.70;;;;;;5117332;27;19908;-73
2023/03/29 02:59:34;;;;;;;;;;;21.60;81.80;;;;;;5135768;27;19908;-72
2023/03/29 03:02:00;;;;;;;;;;;21.60;81.60;;;;;;5136024;27;19908;-73
2023/03/29 03:04:26;;;;;;;;;;;21.80;81.40;;;;;;5135643;27;19908;-73
2023/03/29 03:06:51;;;;;;;;;;;22.00;80.90;;;;;;5132565;27;19993;-73
2023/03/29 03:09:17;;;;;;;;;;;22.10;80.30;;;;;;5133995;27;19943;-73
2023/03/29 03:11:42;;;;;;;;;;;22.20;80.20;;;;;;5133031;27;19915;-73
2023/03/29 03:14:08;;;;;;;;;;;22.20;80.20;;;;;;5134657;27;19918;-74
2023/03/29 03:16:34;;;;;;;;;;;22.20;80.30;;;;;;5135746;27;20353;-72
2023/03/29 03:18:59;;;;;;;;;;;22.10;80.50;;;;;;5135746;27;19915;-73
2023/03/29 03:21:26;;;;;;;;;;;22.00;80.70;;;;;;5135647;27;19994;-73
2023/03/29 03:23:53;;;;;;;;;;;21.80;80.90;;;;;;5134595;27;19976;-73
2023/03/29 03:26:19;;;;;;;;;;;21.80;81.20;;;;;;5135252;27;20346;-74
2023/03/29 03:28:44;;;;;;;;;;;21.70;81.30;;;;;;5135220;27;19915;-73
2023/03/29 03:31:12;;;;;;;;;;;21.50;81.60;;;;;;5135174;27;19907;-73
2023/03/29 03:33:39;;;;;;;;;;;21.50;82.00;;;;;;5116042;27;20274;-73
2023/03/29 03:36:08;;;;;;;;;;;21.40;82.10;;;;;;5135325;27;19907;-72
2023/03/29 03:38:34;;;;;;;;;;;21.40;82.10;;;;;;5135252;27;19915;-72
2023/03/29 03:41:00;;;;;;;;;;;21.40;82.30;;;;;;5135331;27;19964;-73
2023/03/29 03:43:27;;;;;;;;;;;21.50;82.30;;;;;;5134118;27;20010;-73
2023/03/29 03:45:52;;;;;;;;;;;21.60;81.90;;;;;;5135261;27;19912;-72
2023/03/29 03:48:18;;;;;;;;;;;21.80;81.40;;;;;;5135243;27;19960;-72
2023/03/29 03:50:51;;;;;;;;;;;22.00;80.90;;;;;;5134987;27;19908;-73
2023/03/29 03:53:17;;;;;;;;;;;22.10;80.60;;;;;;5134963;27;20372;-73
2023/03/29 03:55:49;;;;;;;;;;;22.20;80.40;;;;;;5133973;27;20003;-73
2023/03/29 03:58:15;;;;;;;;;;;22.10;80.50;;;;;;5135233;27;19958;-73
2023/03/29 04:00:41;;;;;;;;;;;22.10;80.50;;;;;;5135209;28;19996;-74
2023/03/29 04:03:06;;;;;;;;;;;22.00;80.60;;;;;;5135334;27;19908;-73
2023/03/29 04:05:32;;;;;;;;;;;21.90;80.00;;;;;;5140540;27;19945;-73
2023/03/29 04:07:58;;;;;;;;;;;21.80;80.80;;;;;;5123409;27;19911;-74
2023/03/29 04:10:24;;;;;;;;;;;21.70;81.10;;;;;;5141899;27;19907;-73
2023/03/29 04:12:49;;;;;;;;;;;21.60;81.40;;;;;;5141800;27;19914;-73
2023/03/29 04:15:16;;;;;;;;;;;21.50;81.50;;;;;;5140799;27;19990;-73
2023/03/29 04:17:42;;;;;;;;;;;21.50;81.80;;;;;;5141714;27;20123;-73
2023/03/29 04:20:11;;;;;;;;;;;21.40;82.20;;;;;;5141748;27;19912;-73
2023/03/29 04:22:37;;;;;;;;;;;21.40;82.10;;;;;;5140337;27;19908;-72
2023/03/29 04:25:03;;;;;;;;;;;21.50;82.10;;;;;;5141717;27;19922;-73
2023/03/29 04:27:28;;;;;;;;;;;21.60;81.60;;;;;;5141668;27;19908;-73
2023/03/29 04:29:54;;;;;;;;;;;21.80;81.30;;;;;;5137849;27;19907;-72
2023/03/29 04:32:19;;;;;;;;;;;22.00;80.80;;;;;;5141622;27;19972;-73
2023/03/29 04:34:44;;;;;;;;;;;22.10;80.60;;;;;;5141205;27;19926;-73
2023/03/29 04:37:10;;;;;;;;;;;22.10;80.20;;;;;;5146743;27;19915;-72
2023/03/29 04:39:36;;;;;;;;;;;22.10;80.10;;;;;;5153697;27;19925;-72
2023/03/29 04:42:02;;;;;;;;;;;22.10;80.10;;;;;;5141665;27;19926;-73
2023/03/29 04:44:28;;;;;;;;;;;22.00;80.60;;;;;;5141392;27;19908;-73
2023/03/29 04:46:53;;;;;;;;;;;21.90;80.70;;;;;;5138245;27;20060;-73
2023/03/29 04:49:19;;;;;;;;;;;21.80;81.00;;;;;;5119790;27;19911;-73
2023/03/29 04:51:46;;;;;;;;;;;21.70;80.90;;;;;;5139577;27;20408;-72
2023/03/29 04:54:12;;;;;;;;;;;21.60;81.20;;;;;;5141260;27;19947;-72
2023/03/29 04:56:37;;;;;;;;;;;21.50;81.50;;;;;;5122469;27;19961;-72
2023/03/29 04:59:02;;;;;;;;;;;21.40;81.70;;;;;;5129002;27;19915;-73
2023/03/29 05:01:28;;;;;;;;;;;21.40;82.00;;;;;;5144676;27;20345;-73
2023/03/29 05:03:53;;;;;;;;;;;21.40;82.10;;;;;;5142472;27;19912;-73
2023/03/29 05:06:20;;;;;;;;;;;21.50;82.10;;;;;;5158309;27;19915;-71
2023/03/29 05:08:45;;;;;;;;;;;21.60;81.90;;;;;;5144579;27;19919;-73
2023/03/29 05:11:12;;;;;;;;;;;21.60;81.50;;;;;;5152534;27;20382;-73
2023/03/29 05:13:38;;;;;;;;;;;21.70;81.40;;;;;;5136399;27;19918;-70
2023/03/29 05:16:03;;;;;;;;;;;21.80;81.00;;;;;;5119035;27;19912;-71
2023/03/29 05:18:29;;;;;;;;;;;21.90;80.20;;;;;;5136196;27;20366;-70
2023/03/29 05:20:55;;;;;;;;;;;21.90;80.90;;;;;;5136563;27;19919;-70
2023/03/29 05:23:21;;;;;;;;;;;21.90;81.00;;;;;;5136689;27;20400;-70
2023/03/29 05:25:47;;;;;;;;;;;21.90;78.30;;;;;;5135784;27;19911;-71
2023/03/29 05:28:13;;;;;;;;;;;21.90;78.10;;;;;;5136879;27;19920;-71
2023/03/29 05:30:39;;;;;;;;;;;21.80;79.60;;;;;;5136459;27;19918;-71
2023/03/29 05:33:05;;;;;;;;;;;21.70;81.00;;;;;;5134218;27;19916;-73
2023/03/29 05:35:31;;;;;;;;;;;21.70;81.10;;;;;;5136441;27;19981;-72
2023/03/29 05:37:57;;;;;;;;;;;21.60;81.20;;;;;;5137182;27;19912;-72
2023/03/29 05:40:25;;;;;;;;;;;21.50;81.30;;;;;;5132144;27;19976;-68
2023/03/29 05:42:51;;;;;;;;;;;21.50;81.50;;;;;;5133912;27;21480;-63
2023/03/29 05:45:16;;;;;;;;;;;21.50;81.30;;;;;;5131544;27;19919;-61
2023/03/29 05:47:42;;;;;;;;;;;21.50;81.30;;;;;;5148128;27;20285;-64
2023/03/29 05:50:08;;;;;;;;;;;21.60;81.10;;;;;;5136210;27;20286;-62
2023/03/29 05:52:34;;;;;;;;;;;21.70;80.90;;;;;;5125661;27;20346;-59
2023/03/29 05:54:59;;;;;;;;;;;21.80;80.40;;;;;;5136212;27;19918;-63
2023/03/29 05:57:25;;;;;;;;;;;22.00;80.40;;;;;;5137011;27;20009;-62
2023/03/29 05:59:50;;;;;;;;;;;22.00;80.00;;;;;;5150664;27;19911;-62
2023/03/29 06:02:17;;;;;;;;;;;22.10;80.00;;;;;;5144146;27;20385;-63
2023/03/29 06:04:43;;;;;;;;;;;22.00;77.40;;;;;;5136019;27;19915;-62
2023/03/29 06:07:11;;;;;;;;;;;21.90;79.40;;;;;;5136835;27;19907;-62
2023/03/29 06:09:38;;;;;;;;;;;21.80;80.00;;;;;;5136860;27;19908;-63
2023/03/29 06:12:04;;;;;;;;;;;21.80;80.10;;;;;;5137005;27;19937;-64
2023/03/29 06:14:30;;;;;;;;;;;21.70;80.20;;;;;;5116902;27;19956;-63
2023/03/29 06:16:55;;;;;;;;;;;21.60;80.50;;;;;;5131960;27;19907;-63
2023/03/29 06:19:21;;;;;;;;;;;21.60;80.80;;;;;;5124801;27;19922;-62
2023/03/29 06:21:46;;;;;;;;;;;21.50;80.90;;;;;;5117704;27;20366;-66
2023/03/29 06:24:12;;;;;;;;;;;21.50;81.10;;;;;;5136953;27;20027;-65
2023/03/29 06:26:38;;;;;;;;;;;21.50;81.20;;;;;;5117896;27;19908;-66
2023/03/29 06:29:03;;;;;;;;;;;21.50;81.20;;;;;;5118130;27;19972;-67
2023/03/29 06:31:30;;;;;;;;;;;21.60;81.10;;;;;;5118178;27;20269;-66
2023/03/29 06:33:57;;;;;;;;;;;21.70;80.70;;;;;;5132430;27;19911;-65
2023/03/29 06:36:22;;;;;;;;;;;21.90;80.50;;;;;;5134735;27;20003;-65
2023/03/29 06:38:48;;;;;;;;;;;22.10;80.10;;;;;;5135934;27;19959;-65
2023/03/29 06:41:13;;;;;;;;;;;22.10;80.00;;;;;;5117375;27;20457;-63
2023/03/29 06:43:39;;;;;;;;;;;22.10;79.90;;;;;;5135362;27;19919;-63
2023/03/29 06:46:10;;;;;;;;;;;22.00;79.90;;;;;;5136101;27;19911;-63
2023/03/29 06:48:36;;;;;;;;;;;22.00;80.20;;;;;;5134281;27;19911;-63
2023/03/29 06:51:01;;;;;;;;;;;21.90;80.40;;;;;;5149307;27;19967;-64
2023/03/29 06:53:27;;;;;;;;;;;21.80;80.50;;;;;;5141522;27;20347;-62
2023/03/29 06:55:52;;;;;;;;;;;21.70;80.80;;;;;;5135892;27;19912;-72
2023/03/29 06:58:18;;;;;;;;;;;21.70;81.00;;;;;;5130227;27;19926;-69
2023/03/29 07:00:44;;;;;;;;;;;21.60;81.10;;;;;;5113952;27;19911;-71
2023/03/29 07:03:15;;;;;;;;;;;21.60;81.30;;;;;;5134482;27;19919;-69
2023/03/29 07:05:40;;;;;;;;;;;21.60;81.40;;;;;;5134934;27;19948;-65
2023/03/29 07:10:36;;;;;;;;;;;21.70;81.20;;;;;;5134822;27;19911;-63
2023/03/29 07:13:04;;;;;;;;;;;21.90;80.70;;;;;;5114432;27;19916;-63
2023/03/29 07:15:31;;;;;;;;;;;22.10;80.10;;;;;;5135772;27;19967;-66
2023/03/29 07:17:56;;;;;;;;;;;22.20;80.10;;;;;;5133777;27;19919;-65
2023/03/29 07:20:22;;;;;;;;;;;22.20;79.90;;;;;;5134175;27;19916;-67
2023/03/29 07:22:50;;;;;;;;;;;22.20;80.00;;;;;;5135536;27;19908;-67
2023/03/29 07:25:16;;;;;;;;;;;22.10;80.10;;;;;;5117178;27;19914;-65
2023/03/29 07:27:41;;;;;;;;;;;22.00;80.30;;;;;;5135415;27;20004;-64
2023/03/29 07:30:09;;;;;;;;;;;21.90;80.50;;;;;;5134073;27;19911;-65
2023/03/29 07:32:38;;;;;;;;;;;21.80;80.80;;;;;;5135232;27;19907;-65
2023/03/29 07:35:05;;;;;;;;;;;21.70;81.10;;;;;;5135132;27;19907;-65
2023/03/29 07:37:30;;;;;;;;;;;21.60;81.30;;;;;;5135379;27;19915;-65
2023/03/29 07:39:56;;;;;;;;;;;21.50;81.30;;;;;;5132702;27;19931;-65
2023/03/29 07:42:21;;;;;;;;;;;21.50;81.70;;;;;;5132920;27;19923;-66
2023/03/29 07:44:47;;;;;;;;;;;21.40;81.80;;;;;;5128617;27;19954;-66
2023/03/29 07:47:13;;;;;;;;;;;21.30;81.80;;;;;;5132809;27;19923;-68
2023/03/29 07:49:38;;;;;;;;;;;21.30;81.70;;;;;;5116496;27;19994;-67
2023/03/29 07:52:04;;;;;;;;;;;21.30;82.10;;;;;;5133381;27;19964;-66
2023/03/29 07:54:31;;;;;;;;;;;21.30;82.10;;;;;;5134338;27;19911;-66
2023/03/29 07:56:57;;;;;;;;;;;21.30;82.10;;;;;;5135069;27;19999;-66
2023/03/29 07:59:22;;;;;;;;;;;21.40;81.80;;;;;;5116239;27;19958;-65
2023/03/29 08:01:49;;;;;;;;;;;21.60;81.50;;;;;;5133107;27;19912;-66
2023/03/29 08:04:14;;;;;;;;;;;21.80;80.90;;;;;;5133992;28;19918;-70
2023/03/29 08:06:40;;;;;;;;;;;22.10;80.30;;;;;;5134620;28;19998;-65
2023/03/29 08:09:05;;;;;;;;;;;22.20;79.80;;;;;;5134170;28;19956;-64
2023/03/29 08:11:31;;;;;;;;;;;22.30;79.50;;;;;;5133657;28;20354;-64
2023/03/29 08:13:57;;;;;;;;;;;22.20;79.40;;;;;;5135222;28;19907;-65
2023/03/29 08:16:23;;;;;;;;;;;22.30;79.50;;;;;;5132746;28;20370;-65
2023/03/29 08:18:48;;;;;;;;;;;22.10;79.70;;;;;;5133493;28;19919;-65
2023/03/29 08:21:14;;;;;;;;;;;22.00;79.90;;;;;;5134756;28;19914;-63
2023/03/29 08:23:40;;;;;;;;;;;21.90;80.10;;;;;;5134408;28;19907;-65
2023/03/29 08:26:07;;;;;;;;;;;21.90;80.30;;;;;;5134328;28;19976;-68
2023/03/29 08:28:33;;;;;;;;;;;21.80;80.40;;;;;;5132194;28;19968;-64
2023/03/29 08:30:59;;;;;;;;;;;21.70;80.90;;;;;;5133757;28;20002;-63
2023/03/29 08:33:24;;;;;;;;;;;21.60;80.90;;;;;;5133466;28;20368;-62
2023/03/29 08:35:50;;;;;;;;;;;21.50;80.90;;;;;;5116451;28;20414;-62
2023/03/29 08:38:15;;;;;;;;;;;21.50;81.20;;;;;;5131055;28;19941;-64
2023/03/29 08:40:41;;;;;;;;;;;21.50;81.30;;;;;;5128033;28;19919;-64
2023/03/29 08:43:13;;;;;;;;;;;21.50;81.90;;;;;;5114725;28;19912;-65
2023/03/29 08:46:00;;;;;;;;;;;21.50;81.10;;;;;;5134758;28;20007;-63
2023/03/29 08:48:28;;;;;;;;;;;21.70;81.00;;;;;;5133357;28;19928;-63
2023/03/29 08:50:59;;;;;;;;;;;21.80;80.60;;;;;;5149760;27;19956;-63
2023/03/29 08:53:27;;;;;;;;;;;22.00;80.20;;;;;;5146678;27;19968;-69
2023/03/29 08:55:55;;;;;;;;;;;22.10;79.80;;;;;;5119602;27;19915;-66
2023/03/29 08:58:23;;;;;;;;;;;22.30;79.50;;;;;;5117326;27;20021;-68
2023/03/29 09:00:53;;;;;;;;;;;22.20;79.40;;;;;;5137637;27;20008;-76
2023/03/29 09:03:18;;;;;;;;;;;22.20;79.50;;;;;;5135413;27;19907;-72
2023/03/29 09:05:46;;;;;;;;;;;22.10;79.60;;;;;;5133175;27;19912;-71
2023/03/29 09:08:14;;;;;;;;;;;22.00;79.90;;;;;;5118729;27;20358;-72
2023/03/29 09:10:45;;;;;;;;;;;21.90;80.10;;;;;;5138198;27;19972;-65
2023/03/29 09:13:18;;;;;;;;;;;21.80;80.50;;;;;;5117675;27;20403;-63
2023/03/29 09:15:49;;;;;;;;;;;21.70;80.60;;;;;;5136196;27;19911;-66
2023/03/29 09:18:23;;;;;;;;;;;21.70;80.80;;;;;;5125682;27;20269;-65
2023/03/29 09:20:58;;;;;;;;;;;21.60;80.90;;;;;;5137725;27;19918;-68
2023/03/29 09:23:32;;;;;;;;;;;21.60;81.10;;;;;;5136719;27;19908;-73
2023/03/29 09:26:17;;;;;;;;;;;21.50;81.20;;;;;;5125699;27;19961;-70
2023/03/29 09:28:50;;;;;;;;;;;21.60;81.20;;;;;;5115678;28;19916;-66
2023/03/29 09:31:20;;;;;;;;;;;21.70;81.20;;;;;;5126931;27;20258;-72
2023/03/29 09:33:51;;;;;;;;;;;21.90;80.70;;;;;;5138023;27;19911;-73
2023/03/29 09:36:22;;;;;;;;;;;22.10;80.10;;;;;;5136765;27;19915;-71
2023/03/29 09:38:49;;;;;;;;;;;22.30;79.60;;;;;;5117050;28;19919;-75
2023/03/29 09:41:21;;;;;;;;;;;22.40;79.30;;;;;;5115596;28;19927;-66
2023/03/29 09:43:49;;;;;;;;;;;22.40;79.30;;;;;;5133939;27;19908;-72
2023/03/29 09:46:27;;;;;;;;;;;22.30;79.40;;;;;;5118421;27;19933;-72
2023/03/29 09:48:54;;;;;;;;;;;22.20;79.60;;;;;;5119294;27;20344;-69
2023/03/29 09:51:21;;;;;;;;;;;22.10;79.90;;;;;;5153510;27;19911;-69
2023/03/29 09:53:47;;;;;;;;;;;22.00;80.10;;;;;;5157694;27;19907;-68
2023/03/29 09:56:14;;;;;;;;;;;21.90;80.40;;;;;;5146517;27;19968;-77
2023/03/29 09:58:41;;;;;;;;;;;21.80;80.80;;;;;;5136662;27;19920;-75
2023/03/29 10:01:09;;;;;;;;;;;21.70;81.10;;;;;;5136637;27;19908;-71
2023/03/29 10:03:35;;;;;;;;;;;21.60;81.30;;;;;;5136390;27;19907;-74
2023/03/29 10:06:04;;;;;;;;;;;21.50;81.40;;;;;;5135779;27;19955;-71
2023/03/29 10:08:34;;;;;;;;;;;21.50;81.50;;;;;;5137119;27;19907;-72
2023/03/29 10:11:02;;;;;;;;;;;21.50;81.70;;;;;;5118610;27;20270;-74
2023/03/29 10:13:30;;;;;;;;;;;21.50;81.60;;;;;;5117350;27;19908;-69
2023/03/29 10:16:03;;;;;;;;;;;21.60;81.60;;;;;;5100400;27;19915;-72
2023/03/29 10:18:32;;;;;;;;;;;21.70;81.20;;;;;;5113704;27;20378;-69
2023/03/29 10:20:59;;;;;;;;;;;21.90;80.90;;;;;;5136591;27;19907;-69
2023/03/29 10:23:28;;;;;;;;;;;22.10;80.60;;;;;;5134849;27;19918;-69
2023/03/29 10:25:54;;;;;;;;;;;22.10;80.10;;;;;;5133418;27;19919;-69
2023/03/29 10:28:21;;;;;;;;;;;22.30;79.90;;;;;;5134744;27;19915;-66
2023/03/29 10:30:52;;;;;;;;;;;22.30;79.60;;;;;;5135077;27;19912;-67
2023/03/29 10:33:19;;;;;;;;;;;22.20;79.70;;;;;;5129792;27;20323;-66
2023/03/29 10:35:45;;;;;;;;;;;22.10;79.80;;;;;;5116044;27;20366;-66
2023/03/29 10:38:18;;;;;;;;;;;22.00;80.00;;;;;;5132871;27;19926;-66
2023/03/29 10:40:47;;;;;;;;;;;21.90;80.10;;;;;;5135732;27;19919;-66
2023/03/29 10:43:20;;;;;;;;;;;21.80;80.40;;;;;;5131492;27;20255;-64
2023/03/29 10:45:55;;;;;;;;;;;21.70;80.60;;;;;;5119382;27;19960;-65
2023/03/29 10:48:24;;;;;;;;;;;21.60;80.80;;;;;;5126798;27;19912;-65
2023/03/29 10:50:51;;;;;;;;;;;21.60;81.10;;;;;;5123503;27;20039;-64
2023/03/29 10:53:37;;;;;;;;;;;21.50;81.30;;;;;;5132844;27;20370;-65
2023/03/29 10:56:24;;;;;;;;;;;21.50;81.30;;;;;;5132056;27;19923;-71
2023/03/29 10:58:56;;;;;;;;;;;21.50;81.10;;;;;;5133297;27;19915;-75
2023/03/29 11:01:28;;;;;;;;;;;21.60;81.10;;;;;;5135817;27;19993;-73
2023/03/29 11:03:58;;;;;;;;;;;21.70;80.70;;;;;;5117564;27;20268;-70
2023/03/29 11:06:24;;;;;;;;;;;21.90;80.60;;;;;;5133360;27;19915;-72
2023/03/29 11:09:00;;;;;;;;;;;22.00;80.20;;;;;;5135284;27;19911;-81
2023/03/29 11:11:32;;;;;;;;;;;22.10;80.00;;;;;;5135718;27;19990;-76
2023/03/29 11:13:57;;;;;;;;;;;22.20;79.90;;;;;;5133941;27;19908;-72
2023/03/29 11:16:46;;;;;;;;;;;22.30;79.80;;;;;;5117251;27;19903;-71
2023/03/29 11:19:35;;;;;;;;;;;22.20;79.80;;;;;;5096568;27;20040;-75
2023/03/29 11:22:07;;;;;;;;;;;22.10;80.00;;;;;;5135509;27;19903;-63
2023/03/29 11:24:32;;;;;;;;;;;22.00;80.20;;;;;;5134515;27;19912;-70
2023/03/29 11:27:13;;;;;;;;;;;21.90;80.60;;;;;;5135543;27;19903;-68
2023/03/29 11:29:47;;;;;;;;;;;21.80;80.80;;;;;;5135551;27;20238;-70
2023/03/29 11:32:16;;;;;;;;;;;21.70;81.00;;;;;;5135408;27;20009;-67
2023/03/29 11:35:11;;;;;;;;;;;21.60;81.40;;;;;;5133568;27;20010;-69
2023/03/29 11:37:39;;;;;;;;;;;21.60;81.70;;;;;;5045123;27;19962;-76
2023/03/29 11:40:11;;;;;;;;;;;21.50;81.80;;;;;;5134950;27;20273;-67
2023/03/29 11:42:39;;;;;;;;;;;21.50;81.80;;;;;;5135382;27;19916;-68
2023/03/29 11:45:05;;;;;;;;;;;21.70;81.60;;;;;;5134032;27;19914;-71
2023/03/29 11:47:32;;;;;;;;;;;21.80;81.30;;;;;;5134204;27;19908;-69
2023/03/29 11:50:16;;;;;;;;;;;22.00;80.90;;;;;;5139776;27;19947;-68
2023/03/29 11:52:53;;;;;;;;;;;22.20;80.70;;;;;;5137391;27;19994;-78
2023/03/29 11:55:30;;;;;;;;;;;22.30;80.20;;;;;;5143243;27;19960;-65
2023/03/29 11:57:58;;;;;;;;;;;22.40;78.70;;;;;;5131733;27;20007;-67
2023/03/29 12:00:28;;;;;;;;;;;22.40;79.60;;;;;;5132477;27;19911;-65
2023/03/29 12:02:53;;;;;;;;;;;22.30;80.00;;;;;;5134874;27;19911;-74
2023/03/29 12:05:26;;;;;;;;;;;22.20;80.10;;;;;;5133751;28;19915;-64
2023/03/29 12:08:08;;;;;;;;;;;22.10;80.20;;;;;;5131334;28;19911;-66
2023/03/29 12:10:53;;;;;;;;;;;22.00;80.50;;;;;;5113791;28;19992;-65
2023/03/29 12:13:18;;;;;;;;;;;21.90;80.90;;;;;;5133992;28;20297;-64
2023/03/29 12:15:55;;;;;;;;;;;21.80;81.20;;;;;;5133180;28;19912;-66
2023/03/29 12:18:53;;;;;;;;;;;21.70;81.40;;;;;;5130459;28;19919;-66
2023/03/29 12:21:20;;;;;;;;;;;21.60;81.60;;;;;;5092209;28;19919;-71
2023/03/29 12:23:46;;;;;;;;;;;21.70;81.80;;;;;;5133083;28;20269;-70
2023/03/29 12:26:36;;;;;;;;;;;21.70;81.60;;;;;;5120682;27;19907;-77
2023/03/29 12:29:08;;;;;;;;;;;21.80;81.40;;;;;;5097943;27;19911;-62
2023/03/29 12:31:43;;;;;;;;;;;22.00;81.10;;;;;;5135765;27;19912;-71
2023/03/29 12:34:12;;;;;;;;;;;22.10;80.70;;;;;;5129139;27;19961;-69
2023/03/29 12:36:53;;;;;;;;;;;22.20;80.60;;;;;;5137576;27;20346;-68
2023/03/29 12:39:19;;;;;;;;;;;22.30;80.10;;;;;;5120304;27;19938;-65
2023/03/29 12:41:47;;;;;;;;;;;22.40;80.00;;;;;;5101559;28;20368;-66
2023/03/29 12:44:14;;;;;;;;;;;22.40;80.00;;;;;;5093381;28;19920;-66
2023/03/29 12:46:40;;;;;;;;;;;22.40;80.00;;;;;;5094393;28;20355;-70
2023/03/29 12:49:38;;;;;;;;;;;22.30;80.10;;;;;;5097228;28;19961;-65
2023/03/29 12:52:11;;;;;;;;;;;22.20;80.30;;;;;;5059317;28;20380;-70
2023/03/29 12:54:36;;;;;;;;;;;22.10;80.50;;;;;;5093545;28;20343;-65
2023/03/29 12:57:19;;;;;;;;;;;22.00;81.00;;;;;;5095954;28;20019;-72
2023/03/29 12:59:46;;;;;;;;;;;21.90;81.20;;;;;;5075785;28;19917;-69
2023/03/29 13:02:12;;;;;;;;;;;21.80;81.60;;;;;;5085617;28;19912;-74
2023/03/29 13:04:38;;;;;;;;;;;21.70;81.80;;;;;;5092440;28;19912;-74
2023/03/29 13:07:04;;;;;;;;;;;21.60;82.00;;;;;;5093147;28;20263;-78
2023/03/29 13:09:49;;;;;;;;;;;21.60;82.20;;;;;;5095844;28;19916;-66
2023/03/29 13:12:14;;;;;;;;;;;21.60;82.30;;;;;;5094589;28;19973;-68
2023/03/29 13:14:41;;;;;;;;;;;21.60;82.40;;;;;;5096003;28;20350;-67
2023/03/29 13:17:09;;;;;;;;;;;21.60;82.30;;;;;;5093959;28;20010;-68
2023/03/29 13:19:40;;;;;;;;;;;21.60;82.10;;;;;;5095624;28;19924;-71
2023/03/29 13:22:27;;;;;;;;;;;21.80;82.00;;;;;;5095601;28;19912;-66
2023/03/29 13:25:08;;;;;;;;;;;21.90;81.80;;;;;;5093965;28;19969;-68
2023/03/29 13:27:36;;;;;;;;;;;22.00;81.40;;;;;;5096593;28;19947;-69
2023/03/29 13:30:19;;;;;;;;;;;22.20;81.00;;;;;;5094626;28;19912;-67
2023/03/29 13:32:48;;;;;;;;;;;22.30;80.60;;;;;;5092570;28;20363;-74
2023/03/29 13:35:32;;;;;;;;;;;22.40;80.50;;;;;;5093967;28;20431;-70
2023/03/29 13:38:15;;;;;;;;;;;22.40;80.30;;;;;;5090507;28;19921;-71
2023/03/29 13:40:46;;;;;;;;;;;22.30;80.50;;;;;;5090671;27;20376;-75
2023/03/29 13:43:18;;;;;;;;;;;22.20;80.60;;;;;;5137629;27;19967;-73
2023/03/29 13:45:44;;;;;;;;;;;22.20;80.90;;;;;;5115108;27;19920;-75
2023/03/29 13:48:28;;;;;;;;;;;22.10;81.10;;;;;;5134941;27;19918;-78
2023/03/29 13:51:00;;;;;;;;;;;22.00;81.40;;;;;;5149390;27;19907;-73
2023/03/29 13:53:28;;;;;;;;;;;21.90;81.50;;;;;;5145810;27;20460;-75
2023/03/29 13:55:56;;;;;;;;;;;21.80;81.70;;;;;;5133289;27;19912;-82
2023/03/29 13:58:21;;;;;;;;;;;21.80;81.90;;;;;;5135802;27;19920;-80
2023/03/29 14:00:50;;;;;;;;;;;21.80;82.00;;;;;;5133842;27;19918;-74
2023/03/29 14:03:17;;;;;;;;;;;21.80;82.00;;;;;;5135269;27;20362;-71
2023/03/29 14:05:50;;;;;;;;;;;21.90;81.70;;;;;;5130848;27;19916;-65
2023/03/29 14:08:25;;;;;;;;;;;21.90;81.70;;;;;;5136273;27;19915;-66
2023/03/29 14:10:51;;;;;;;;;;;22.00;81.50;;;;;;5136326;27;19935;-67
2023/03/29 14:13:17;;;;;;;;;;;22.10;81.20;;;;;;5136355;27;19991;-68
2023/03/29 14:15:44;;;;;;;;;;;22.10;81.00;;;;;;5135591;27;19915;-68
2023/03/29 14:18:11;;;;;;;;;;;22.10;81.00;;;;;;5134073;27;20416;-73
2023/03/29 14:20:37;;;;;;;;;;;22.10;81.20;;;;;;5134993;27;20005;-66
2023/03/29 14:23:08;;;;;;;;;;;22.00;81.30;;;;;;5131196;27;20373;-65
2023/03/29 14:25:35;;;;;;;;;;;22.00;81.40;;;;;;5133762;27;19919;-68
2023/03/29 14:28:01;;;;;;;;;;;21.90;81.80;;;;;;5133939;27;19934;-70